Spring Creek, CO

10:47 AM MST on March 06, 2015 (GMT -0700)
Aspen-Pitkin County / Sardy Field | Change Station
CLOSE
Current Station
Airport
Location: Aspen,
Elevation: 7822 ft
Nearby Weather Stations

Elev 7822 ft 39.23 °N, 106.87 °W | Updated 54 minutes ago

Clear
Clear
28 °F
Feels Like 28 °F
N
0
Wind Variable Wind from North

Today
High -- | Low -- °F
--% Chance of Precip.
Yesterday
High -- | Low -- °F
Precip. -- in
6:31 AM 6:04 PM
Full, 99% visible
Pressure 30.42 in
Visibility 10.0 miles
Clouds Clear
Dew Point 10 °F
Humidity 47%
Rainfall 0.00 in
Snow Depth Not available.
UV 4 out of 12
Pollen 6.10 out of 12
Air Quality Not available.
Flu Activity Not available.
METAR KASE 061653Z COR 00000KT 10SM CLR M02/M12 A3042 RMK AO2 SLPNO $

More Conditions Fewer Conditions

Pressure 30.42 in
Visibility 10.0 miles
Clouds Clear
Dew Point 10 °F
Humidity 47%
Rainfall 0.00 in
Snow Depth Not available.
UV 4 out of 12
Pollen 6.10 out of 12
Air Quality Not available.
Flu Activity Not available.
METAR KASE 061653Z COR 00000KT 10SM CLR M02/M12 A3042 RMK AO2 SLPNO $

More Conditions Fewer Conditions

10-Day Weather Forecast

Almanac

Astronomy

Mar. 06, 2015 Rise Set
Actual Time
Civil Twilight
Nautical Twilight
Astronomical Twilight
Moon
Length of Visible Light
Length of Day
Tomorrow will be .
, % of the Moon is Illuminated

Today's Extremes

State Highs State Lows

Community

WunderPhotos

Upload Photos

1,803,347 photos uploaded!

WunderBlogs® & News

Nearby

Air Quality

  Air Quality AQ Index Pollutant
Not available.

Snow Depth

Station Depth Elevation

Earthquake Activity

City Distance Mag. Time & Date
Minimum magnitude displayed is 2.5.

Coastal Water Temperatures

Place Temperature

Nearby Weather Stations